sensor_id;sensor_type;location;lat;lon;timestamp;pressure;altitude;pressure_sealevel;temperature;humidity
18900;BME280;9582;52.018;6.306;2023-02-13T00:02:21;103646.41;;;6.89;100.00
18900;BME280;9582;52.018;6.306;2023-02-13T00:04:49;103645.47;;;6.84;100.00
18900;BME280;9582;52.018;6.306;2023-02-13T00:07:15;103642.78;;;6.78;100.00
18900;BME280;9582;52.018;6.306;2023-02-13T00:09:44;103636.84;;;6.85;100.00
18900;BME280;9582;52.018;6.306;2023-02-13T00:12:12;103638.34;;;6.73;100.00
18900;BME280;9582;52.018;6.306;2023-02-13T00:14:41;103634.81;;;6.69;100.00
18900;BME280;9582;52.018;6.306;2023-02-13T00:17:14;103633.81;;;6.61;100.00
18900;BME280;9582;52.018;6.306;2023-02-13T00:19:51;103632.81;;;6.53;100.00
18900;BME280;9582;52.018;6.306;2023-02-13T00:22:20;103637.09;;;6.50;100.00
18900;BME280;9582;52.018;6.306;2023-02-13T00:24:49;103636.06;;;6.40;100.00
18900;BME280;9582;52.018;6.306;2023-02-13T00:27:15;103643.00;;;6.41;100.00
18900;BME280;9582;52.018;6.306;2023-02-13T00:29:52;103637.84;;;6.43;100.00
18900;BME280;9582;52.018;6.306;2023-02-13T00:32:24;103634.47;;;6.48;100.00
18900;BME280;9582;52.018;6.306;2023-02-13T00:34:58;103633.66;;;6.51;100.00
18900;BME280;9582;52.018;6.306;2023-02-13T00:37:32;103631.16;;;6.57;100.00
18900;BME280;9582;52.018;6.306;2023-02-13T00:39:59;103625.91;;;6.55;100.00
18900;BME280;9582;52.018;6.306;2023-02-13T00:42:29;103624.19;;;6.56;100.00
18900;BME280;9582;52.018;6.306;2023-02-13T00:45:03;103624.31;;;6.63;100.00
18900;BME280;9582;52.018;6.306;2023-02-13T00:47:34;103626.13;;;6.66;100.00
18900;BME280;9582;52.018;6.306;2023-02-13T00:50:02;103626.13;;;6.67;100.00
18900;BME280;9582;52.018;6.306;2023-02-13T00:52:34;103621.13;;;6.79;100.00
18900;BME280;9582;52.018;6.306;2023-02-13T00:55:01;103628.06;;;6.80;100.00
18900;BME280;9582;52.018;6.306;2023-02-13T00:57:32;103627.28;;;6.84;100.00
18900;BME280;9582;52.018;6.306;2023-02-13T01:00:02;103622.75;;;6.73;100.00
18900;BME280;9582;52.018;6.306;2023-02-13T01:02:30;103628.72;;;6.67;100.00
18900;BME280;9582;52.018;6.306;2023-02-13T01:05:05;103634.88;;;6.72;100.00
18900;BME280;9582;52.018;6.306;2023-02-13T01:07:35;103629.50;;;6.60;100.00
18900;BME280;9582;52.018;6.306;2023-02-13T01:10:01;103631.16;;;6.58;100.00
18900;BME280;9582;52.018;6.306;2023-02-13T01:12:30;103629.44;;;6.57;100.00
18900;BME280;9582;52.018;6.306;2023-02-13T01:15:00;103632.88;;;6.58;100.00
18900;BME280;9582;52.018;6.306;2023-02-13T01:17:29;103627.69;;;6.58;100.00
18900;BME280;9582;52.018;6.306;2023-02-13T01:20:05;103624.28;;;6.60;100.00
18900;BME280;9582;52.018;6.306;2023-02-13T01:22:37;103626.91;;;6.63;100.00
18900;BME280;9582;52.018;6.306;2023-02-13T01:25:11;103627.75;;;6.61;100.00
18900;BME280;9582;52.018;6.306;2023-02-13T01:27:40;103625.97;;;6.58;100.00
18900;BME280;9582;52.018;6.306;2023-02-13T01:30:11;103624.25;;;6.57;100.00
18900;BME280;9582;52.018;6.306;2023-02-13T01:32:48;103625.13;;;6.59;100.00
18900;BME280;9582;52.018;6.306;2023-02-13T01:35:22;103620.81;;;6.60;100.00
18900;BME280;9582;52.018;6.306;2023-02-13T01:37:58;103614.72;;;6.59;100.00
18900;BME280;9582;52.018;6.306;2023-02-13T01:40:25;103618.31;;;6.66;100.00
18900;BME280;9582;52.018;6.306;2023-02-13T01:42:54;103620.88;;;6.63;100.00
18900;BME280;9582;52.018;6.306;2023-02-13T01:45:25;103617.53;;;6.73;100.00
18900;BME280;9582;52.018;6.306;2023-02-13T01:47:59;103612.38;;;6.74;100.00
18900;BME280;9582;52.018;6.306;2023-02-13T01:50:36;103608.81;;;6.69;100.00
18900;BME280;9582;52.018;6.306;2023-02-13T01:53:12;103606.25;;;6.71;100.00
18900;BME280;9582;52.018;6.306;2023-02-13T01:55:47;103615.81;;;6.73;100.00
18900;BME280;9582;52.018;6.306;2023-02-13T01:58:26;103608.91;;;6.75;100.00
18900;BME280;9582;52.018;6.306;2023-02-13T02:00:54;103599.41;;;6.77;100.00
18900;BME280;9582;52.018;6.306;2023-02-13T02:03:26;103602.88;;;6.76;100.00
18900;BME280;9582;52.018;6.306;2023-02-13T02:06:11;103608.84;;;6.71;100.00
18900;BME280;9582;52.018;6.306;2023-02-13T02:08:42;103608.88;;;6.72;100.00
18900;BME280;9582;52.018;6.306;2023-02-13T02:11:23;103608.06;;;6.76;100.00
18900;BME280;9582;52.018;6.306;2023-02-13T02:13:58;103612.41;;;6.77;100.00
18900;BME280;9582;52.018;6.306;2023-02-13T02:16:31;103610.69;;;6.76;100.00
18900;BME280;9582;52.018;6.306;2023-02-13T02:19:00;103600.28;;;6.78;100.00
18900;BME280;9582;52.018;6.306;2023-02-13T02:21:52;103603.75;;;6.78;100.00
18900;BME280;9582;52.018;6.306;2023-02-13T02:24:50;103602.00;;;6.77;100.00
18900;BME280;9582;52.018;6.306;2023-02-13T02:27:50;103602.91;;;6.79;100.00
18900;BME280;9582;52.018;6.306;2023-02-13T02:30:44;103591.69;;;6.83;100.00
18900;BME280;9582;52.018;6.306;2023-02-13T02:33:32;103600.47;;;6.90;100.00
18900;BME280;9582;52.018;6.306;2023-02-13T02:36:18;103591.00;;;6.93;100.00
18900;BME280;9582;52.018;6.306;2023-02-13T02:39:02;103594.47;;;6.95;100.00
18900;BME280;9582;52.018;6.306;2023-02-13T02:41:49;103589.31;;;6.98;100.00
18900;BME280;9582;52.018;6.306;2023-02-13T02:44:31;103585.00;;;7.01;100.00
18900;BME280;9582;52.018;6.306;2023-02-13T02:47:08;103590.25;;;7.04;100.00
18900;BME280;9582;52.018;6.306;2023-02-13T02:50:10;103589.41;;;7.06;100.00
18900;BME280;9582;52.018;6.306;2023-02-13T02:52:53;103595.50;;;7.07;100.00
18900;BME280;9582;52.018;6.306;2023-02-13T02:55:39;103588.53;;;7.04;100.00
18900;BME280;9582;52.018;6.306;2023-02-13T02:58:19;103594.56;;;7.02;100.00
18900;BME280;9582;52.018;6.306;2023-02-13T03:01:06;103596.34;;;7.06;100.00
18900;BME280;9582;52.018;6.306;2023-02-13T03:03:59;103588.59;;;7.07;100.00
18900;BME280;9582;52.018;6.306;2023-02-13T03:06:53;103592.94;;;7.10;100.00
18900;BME280;9582;52.018;6.306;2023-02-13T03:09:24;103591.31;;;7.16;100.00
18900;BME280;9582;52.018;6.306;2023-02-13T03:12:16;103585.97;;;7.09;100.00
18900;BME280;9582;52.018;6.306;2023-02-13T03:15:02;103587.69;;;7.07;100.00
18900;BME280;9582;52.018;6.306;2023-02-13T03:17:29;103588.53;;;7.06;100.00
18900;BME280;9582;52.018;6.306;2023-02-13T03:20:24;103583.34;;;7.06;100.00
18900;BME280;9582;52.018;6.306;2023-02-13T03:23:23;103589.41;;;7.06;100.00
18900;BME280;9582;52.018;6.306;2023-02-13T03:29:06;103586.78;;;7.03;100.00
18900;BME280;9582;52.018;6.306;2023-02-13T03:32:05;103590.25;;;7.04;100.00
18900;BME280;9582;52.018;6.306;2023-02-13T03:34:37;103592.81;;;6.99;100.00
18900;BME280;9582;52.018;6.306;2023-02-13T03:37:27;103591.94;;;6.98;100.00
18900;BME280;9582;52.018;6.306;2023-02-13T03:40:20;103593.59;;;6.93;100.00
18900;BME280;9582;52.018;6.306;2023-02-13T03:42:55;103596.25;;;6.96;100.00
18900;BME280;9582;52.018;6.306;2023-02-13T03:45:29;103598.75;;;6.92;100.00
18900;BME280;9582;52.018;6.306;2023-02-13T03:48:20;103596.16;;;6.90;100.00
18900;BME280;9582;52.018;6.306;2023-02-13T03:51:09;103597.88;;;6.90;100.00
18900;BME280;9582;52.018;6.306;2023-02-13T03:53:41;103606.50;;;6.87;100.00
18900;BME280;9582;52.018;6.306;2023-02-13T03:56:17;103603.84;;;6.84;100.00
18900;BME280;9582;52.018;6.306;2023-02-13T03:59:03;103601.16;;;6.77;100.00
18900;BME280;9582;52.018;6.306;2023-02-13T04:01:47;103608.97;;;6.78;100.00
18900;BME280;9582;52.018;6.306;2023-02-13T04:04:24;103610.69;;;6.76;100.00
18900;BME280;9582;52.018;6.306;2023-02-13T04:07:08;103604.59;;;6.76;100.00
18900;BME280;9582;52.018;6.306;2023-02-13T04:09:39;103602.03;;;6.79;100.00
18900;BME280;9582;52.018;6.306;2023-02-13T04:12:15;103595.97;;;6.78;100.00
18900;BME280;9582;52.018;6.306;2023-02-13T04:14:53;103596.06;;;6.83;100.00
18900;BME280;9582;52.018;6.306;2023-02-13T04:17:30;103597.03;;;6.91;100.00
18900;BME280;9582;52.018;6.306;2023-02-13T04:20:00;103595.25;;;6.88;100.00
18900;BME280;9582;52.018;6.306;2023-02-13T04:22:27;103597.19;;;7.02;100.00
18900;BME280;9582;52.018;6.306;2023-02-13T04:24:55;103599.84;;;7.06;100.00
18900;BME280;9582;52.018;6.306;2023-02-13T04:27:26;103598.09;;;7.05;100.00
18900;BME280;9582;52.018;6.306;2023-02-13T04:29:53;103597.94;;;6.94;100.00
18900;BME280;9582;52.018;6.306;2023-02-13T04:32:20;103600.56;;;6.96;100.00
18900;BME280;9582;52.018;6.306;2023-02-13T04:34:48;103592.91;;;7.05;100.00
18900;BME280;9582;52.018;6.306;2023-02-13T04:37:14;103601.41;;;6.93;100.00
18900;BME280;9582;52.018;6.306;2023-02-13T04:39:44;103604.88;;;6.95;100.00
18900;BME280;9582;52.018;6.306;2023-02-13T04:42:10;103599.72;;;6.97;100.00
18900;BME280;9582;52.018;6.306;2023-02-13T04:44:38;103601.50;;;7.00;100.00
18900;BME280;9582;52.018;6.306;2023-02-13T04:47:05;103598.00;;;6.99;100.00
18900;BME280;9582;52.018;6.306;2023-02-13T04:49:44;103597.13;;;6.98;100.00
18900;BME280;9582;52.018;6.306;2023-02-13T04:52:13;103594.59;;;7.03;100.00
18900;BME280;9582;52.018;6.306;2023-02-13T04:54:43;103600.66;;;7.04;100.00
18900;BME280;9582;52.018;6.306;2023-02-13T04:57:09;103599.84;;;7.06;100.00
18900;BME280;9582;52.018;6.306;2023-02-13T04:59:42;103590.31;;;7.07;100.00
18900;BME280;9582;52.018;6.306;2023-02-13T05:02:10;103592.06;;;7.08;100.00
18900;BME280;9582;52.018;6.306;2023-02-13T05:04:41;103593.91;;;7.16;100.00
18900;BME280;9582;52.018;6.306;2023-02-13T05:07:10;103586.06;;;7.13;100.00
18900;BME280;9582;52.018;6.306;2023-02-13T05:09:39;103593.75;;;7.06;100.00
18900;BME280;9582;52.018;6.306;2023-02-13T05:12:17;103586.81;;;7.05;100.00
18900;BME280;9582;52.018;6.306;2023-02-13T05:14:56;103580.78;;;7.07;100.00
18900;BME280;9582;52.018;6.306;2023-02-13T05:17:29;103577.28;;;7.07;100.00
18900;BME280;9582;52.018;6.306;2023-02-13T05:19:57;103578.34;;;7.19;100.00
18900;BME280;9582;52.018;6.306;2023-02-13T05:22:24;103580.16;;;7.25;100.00
18900;BME280;9582;52.018;6.306;2023-02-13T05:25:08;103575.88;;;7.31;100.00
18900;BME280;9582;52.018;6.306;2023-02-13T05:27:37;103577.63;;;7.31;100.00
18900;BME280;9582;52.018;6.306;2023-02-13T05:30:10;103575.84;;;7.27;100.00
18900;BME280;9582;52.018;6.306;2023-02-13T05:32:38;103575.00;;;7.29;100.00
18900;BME280;9582;52.018;6.306;2023-02-13T05:35:13;103572.22;;;7.17;100.00
18900;BME280;9582;52.018;6.306;2023-02-13T05:37:47;103577.38;;;7.11;100.00
18900;BME280;9582;52.018;6.306;2023-02-13T05:40:18;103567.81;;;7.12;100.00
18900;BME280;9582;52.018;6.306;2023-02-13T05:42:45;103573.91;;;7.11;100.00
18900;BME280;9582;52.018;6.306;2023-02-13T05:45:21;103577.44;;;7.16;100.00
18900;BME280;9582;52.018;6.306;2023-02-13T05:47:53;103578.94;;;7.00;100.00
18900;BME280;9582;52.018;6.306;2023-02-13T05:50:21;103575.47;;;7.00;100.00
18900;BME280;9582;52.018;6.306;2023-02-13T05:52:50;103574.59;;;6.99;100.00
18900;BME280;9582;52.018;6.306;2023-02-13T05:55:19;103578.13;;;7.03;100.00
18900;BME280;9582;52.018;6.306;2023-02-13T05:57:51;103580.69;;;7.01;100.00
18900;BME280;9582;52.018;6.306;2023-02-13T06:00:30;103578.97;;;7.02;100.00
18900;BME280;9582;52.018;6.306;2023-02-13T06:02:57;103578.03;;;6.98;100.00
18900;BME280;9582;52.018;6.306;2023-02-13T06:05:40;103583.31;;;7.03;100.00
18900;BME280;9582;52.018;6.306;2023-02-13T06:08:09;103577.19;;;6.99;100.00
18900;BME280;9582;52.018;6.306;2023-02-13T06:10:39;103569.66;;;7.19;100.00
18900;BME280;9582;52.018;6.306;2023-02-13T06:13:11;103570.59;;;7.22;100.00
18900;BME280;9582;52.018;6.306;2023-02-13T06:15:42;103573.22;;;7.28;100.00
18900;BME280;9582;52.018;6.306;2023-02-13T06:18:15;103574.88;;;7.19;100.00
18900;BME280;9582;52.018;6.306;2023-02-13T06:20:43;103576.50;;;7.11;100.00
18900;BME280;9582;52.018;6.306;2023-02-13T06:23:11;103580.78;;;7.07;100.00
18900;BME280;9582;52.018;6.306;2023-02-13T06:25:43;103578.19;;;7.09;100.00
18900;BME280;9582;52.018;6.306;2023-02-13T06:28:17;103579.94;;;7.08;100.00
18900;BME280;9582;52.018;6.306;2023-02-13T06:30:48;103586.03;;;7.12;100.00
18900;BME280;9582;52.018;6.306;2023-02-13T06:33:18;103584.38;;;7.17;100.00
18900;BME280;9582;52.018;6.306;2023-02-13T06:35:44;103598.19;;;7.14;100.00
18900;BME280;9582;52.018;6.306;2023-02-13T06:38:14;103599.13;;;7.18;100.00
18900;BME280;9582;52.018;6.306;2023-02-13T06:40:45;103596.53;;;7.18;100.00
18900;BME280;9582;52.018;6.306;2023-02-13T06:43:15;103598.25;;;7.17;100.00
18900;BME280;9582;52.018;6.306;2023-02-13T06:45:53;103605.22;;;7.20;100.00
18900;BME280;9582;52.018;6.306;2023-02-13T06:48:26;103600.00;;;7.20;100.00
18900;BME280;9582;52.018;6.306;2023-02-13T06:50:54;103604.41;;;7.24;100.00
18900;BME280;9582;52.018;6.306;2023-02-13T06:53:20;103591.50;;;7.31;100.00
18900;BME280;9582;52.018;6.306;2023-02-13T06:55:58;103592.53;;;7.44;100.00
18900;BME280;9582;52.018;6.306;2023-02-13T06:58:28;103595.06;;;7.36;100.00
18900;BME280;9582;52.018;6.306;2023-02-13T07:00:58;103593.28;;;7.35;100.00
18900;BME280;9582;52.018;6.306;2023-02-13T07:03:31;103600.22;;;7.33;100.00
18900;BME280;9582;52.018;6.306;2023-02-13T07:06:02;103601.09;;;7.37;100.00
18900;BME280;9582;52.018;6.306;2023-02-13T07:08:34;103606.28;;;7.34;100.00
18900;BME280;9582;52.018;6.306;2023-02-13T07:11:03;103603.66;;;7.31;100.00
18900;BME280;9582;52.018;6.306;2023-02-13T07:13:31;103608.88;;;7.31;100.00
18900;BME280;9582;52.018;6.306;2023-02-13T07:16:02;103614.16;;;7.38;100.00
18900;BME280;9582;52.018;6.306;2023-02-13T07:18:29;103614.16;;;7.40;100.00
18900;BME280;9582;52.018;6.306;2023-02-13T07:20:59;103618.53;;;7.41;100.00
18900;BME280;9582;52.018;6.306;2023-02-13T07:23:29;103622.03;;;7.43;100.00
18900;BME280;9582;52.018;6.306;2023-02-13T07:26:01;103622.97;;;7.49;100.00
18900;BME280;9582;52.018;6.306;2023-02-13T07:28:28;103626.44;;;7.48;100.00
18900;BME280;9582;52.018;6.306;2023-02-13T07:31:05;103626.56;;;7.57;100.00
18900;BME280;9582;52.018;6.306;2023-02-13T07:33:31;103625.66;;;7.57;100.00
18900;BME280;9582;52.018;6.306;2023-02-13T07:36:07;103624.78;;;7.56;100.00
18900;BME280;9582;52.018;6.306;2023-02-13T07:38:40;103625.72;;;7.60;100.00
18900;BME280;9582;52.018;6.306;2023-02-13T07:41:07;103627.59;;;7.70;100.00
18900;BME280;9582;52.018;6.306;2023-02-13T07:43:34;103621.63;;;7.82;100.00
18900;BME280;9582;52.018;6.306;2023-02-13T07:46:03;103635.44;;;7.73;100.00
18900;BME280;9582;52.018;6.306;2023-02-13T07:48:38;103626.81;;;7.82;100.00
18900;BME280;9582;52.018;6.306;2023-02-13T07:51:16;103626.06;;;7.87;100.00
18900;BME280;9582;52.018;6.306;2023-02-13T07:53:48;103631.19;;;7.81;100.00
18900;BME280;9582;52.018;6.306;2023-02-13T07:56:16;103642.53;;;7.86;100.00
18900;BME280;9582;52.018;6.306;2023-02-13T07:58:43;103632.16;;;7.91;100.00
18900;BME280;9582;52.018;6.306;2023-02-13T08:01:14;103636.50;;;7.93;100.00
18900;BME280;9582;52.018;6.306;2023-02-13T08:03:49;103635.69;;;7.96;100.00
18900;BME280;9582;52.018;6.306;2023-02-13T08:06:17;103640.09;;;8.01;100.00
18900;BME280;9582;52.018;6.306;2023-02-13T08:08:51;103643.59;;;8.03;100.00
18900;BME280;9582;52.018;6.306;2023-02-13T08:11:40;103642.75;;;8.07;100.00
18900;BME280;9582;52.018;6.306;2023-02-13T08:14:20;103643.69;;;8.14;100.00
18900;BME280;9582;52.018;6.306;2023-02-13T08:16:49;103640.28;;;8.18;100.00
18900;BME280;9582;52.018;6.306;2023-02-13T08:19:17;103648.22;;;8.30;100.00
18900;BME280;9582;52.018;6.306;2023-02-13T08:21:47;103638.75;;;8.37;100.00
18900;BME280;9582;52.018;6.306;2023-02-13T08:24:20;103641.31;;;8.32;100.00
18900;BME280;9582;52.018;6.306;2023-02-13T08:26:46;103637.91;;;8.39;100.00
18900;BME280;9582;52.018;6.306;2023-02-13T08:29:30;103638.91;;;8.52;100.00
18900;BME280;9582;52.018;6.306;2023-02-13T08:32:04;103631.88;;;8.48;100.00
18900;BME280;9582;52.018;6.306;2023-02-13T08:34:32;103636.19;;;8.43;100.00
18900;BME280;9582;52.018;6.306;2023-02-13T08:37:02;103640.56;;;8.47;100.00
18900;BME280;9582;52.018;6.306;2023-02-13T08:39:34;103636.16;;;8.41;100.00
18900;BME280;9582;52.018;6.306;2023-02-13T08:42:03;103644.13;;;8.52;100.00
18900;BME280;9582;52.018;6.306;2023-02-13T08:44:36;103645.09;;;8.67;100.00
18900;BME280;9582;52.018;6.306;2023-02-13T08:47:06;103643.41;;;8.74;100.00
18900;BME280;9582;52.018;6.306;2023-02-13T08:49:38;103657.34;;;8.75;100.00
18900;BME280;9582;52.018;6.306;2023-02-13T08:52:07;103653.88;;;8.77;100.00
18900;BME280;9582;52.018;6.306;2023-02-13T08:54:38;103651.28;;;8.82;100.00
18900;BME280;9582;52.018;6.306;2023-02-13T08:57:06;103644.41;;;8.88;100.00
18900;BME280;9582;52.018;6.306;2023-02-13T08:59:46;103644.34;;;8.82;100.00
18900;BME280;9582;52.018;6.306;2023-02-13T09:02:17;103645.31;;;8.92;100.00
18900;BME280;9582;52.018;6.306;2023-02-13T09:04:43;103646.22;;;9.01;100.00
18900;BME280;9582;52.018;6.306;2023-02-13T09:07:19;103648.81;;;9.01;100.00
18900;BME280;9582;52.018;6.306;2023-02-13T09:09:48;103646.16;;;8.95;100.00
18900;BME280;9582;52.018;6.306;2023-02-13T09:12:21;103653.16;;;8.96;100.00
18900;BME280;9582;52.018;6.306;2023-02-13T09:14:49;103641.03;;;9.03;100.00
18900;BME280;9582;52.018;6.306;2023-02-13T09:17:20;103640.22;;;9.16;100.00
18900;BME280;9582;52.018;6.306;2023-02-13T09:19:51;103643.75;;;9.24;100.00
18900;BME280;9582;52.018;6.306;2023-02-13T09:22:21;103639.47;;;9.38;100.00
18900;BME280;9582;52.018;6.306;2023-02-13T09:24:49;103636.06;;;9.50;100.00
18900;BME280;9582;52.018;6.306;2023-02-13T09:27:20;103629.06;;;9.40;100.00
18900;BME280;9582;52.018;6.306;2023-02-13T09:29:53;103633.41;;;9.42;100.00
18900;BME280;9582;52.018;6.306;2023-02-13T09:32:25;103632.56;;;9.48;100.00
18900;BME280;9582;52.018;6.306;2023-02-13T09:34:59;103635.25;;;9.64;100.00
18900;BME280;9582;52.018;6.306;2023-02-13T09:37:31;103637.03;;;9.73;100.00
18900;BME280;9582;52.018;6.306;2023-02-13T09:39:58;103629.22;;;9.83;100.00
18900;BME280;9582;52.018;6.306;2023-02-13T09:42:30;103636.22;;;9.92;100.00
18900;BME280;9582;52.018;6.306;2023-02-13T09:45:04;103632.72;;;9.92;100.00
18900;BME280;9582;52.018;6.306;2023-02-13T09:47:38;103637.97;;;10.05;100.00
18900;BME280;9582;52.018;6.306;2023-02-13T09:50:12;103642.34;;;10.08;100.00
18900;BME280;9582;52.018;6.306;2023-02-13T09:52:54;103641.47;;;10.04;100.00
18900;BME280;9582;52.018;6.306;2023-02-13T09:55:24;103639.78;;;10.15;100.00
18900;BME280;9582;52.018;6.306;2023-02-13T09:58:06;103640.59;;;10.11;100.00
18900;BME280;9582;52.018;6.306;2023-02-13T10:00:39;103643.19;;;10.05;100.00
18900;BME280;9582;52.018;6.306;2023-02-13T10:03:20;103644.94;;;10.00;100.00
18900;BME280;9582;52.018;6.306;2023-02-13T10:05:59;103649.31;;;10.03;100.00
18900;BME280;9582;52.018;6.306;2023-02-13T10:08:57;103652.75;;;9.94;100.00
18900;BME280;9582;52.018;6.306;2023-02-13T10:11:42;103649.34;;;10.13;100.00
18900;BME280;9582;52.018;6.306;2023-02-13T10:14:29;103645.84;;;10.10;100.00
18900;BME280;9582;52.018;6.306;2023-02-13T10:17:05;103638.03;;;10.17;100.00
18900;BME280;9582;52.018;6.306;2023-02-13T10:19:41;103636.31;;;10.27;100.00
18900;BME280;9582;52.018;6.306;2023-02-13T10:22:12;103639.78;;;10.30;100.00
18900;BME280;9582;52.018;6.306;2023-02-13T10:24:45;103638.06;;;10.28;100.00
18900;BME280;9582;52.018;6.306;2023-02-13T10:27:26;103642.44;;;10.32;100.00
18900;BME280;9582;52.018;6.306;2023-02-13T10:29:58;103645.03;;;10.36;100.00
18900;BME280;9582;52.018;6.306;2023-02-13T10:32:41;103638.97;;;10.53;100.00
18900;BME280;9582;52.018;6.306;2023-02-13T10:35:23;103644.19;;;10.50;100.00
18900;BME280;9582;52.018;6.306;2023-02-13T10:38:14;103643.31;;;10.55;100.00
18900;BME280;9582;52.018;6.306;2023-02-13T10:40:57;103641.56;;;10.62;100.00
18900;BME280;9582;52.018;6.306;2023-02-13T10:43:45;103647.69;;;10.62;100.00
18900;BME280;9582;52.018;6.306;2023-02-13T10:46:24;103637.22;;;10.61;100.00
18900;BME280;9582;52.018;6.306;2023-02-13T10:49:09;103637.19;;;10.53;100.00
18900;BME280;9582;52.018;6.306;2023-02-13T10:51:47;103637.19;;;10.59;100.00
18900;BME280;9582;52.018;6.306;2023-02-13T10:57:10;103624.13;;;10.59;100.00
18900;BME280;9582;52.018;6.306;2023-02-13T10:59:47;103624.97;;;10.61;100.00
18900;BME280;9582;52.018;6.306;2023-02-13T11:02:28;103622.38;;;10.75;100.00
18900;BME280;9582;52.018;6.306;2023-02-13T11:05:12;103617.13;;;10.70;100.00
18900;BME280;9582;52.018;6.306;2023-02-13T11:07:43;103619.78;;;10.58;100.00
18900;BME280;9582;52.018;6.306;2023-02-13T11:10:16;103611.91;;;10.57;100.00
18900;BME280;9582;52.018;6.306;2023-02-13T11:12:48;103604.91;;;10.56;100.00
18900;BME280;9582;52.018;6.306;2023-02-13T11:15:28;103612.78;;;10.65;100.00
18900;BME280;9582;52.018;6.306;2023-02-13T11:18:13;103604.91;;;10.86;100.00
18900;BME280;9582;52.018;6.306;2023-02-13T11:20:50;103607.53;;;10.77;100.00
18900;BME280;9582;52.018;6.306;2023-02-13T11:23:34;103597.94;;;10.71;100.00
18900;BME280;9582;52.018;6.306;2023-02-13T11:26:04;103598.81;;;10.75;100.00
18900;BME280;9582;52.018;6.306;2023-02-13T11:28:43;103597.06;;;10.80;100.00
18900;BME280;9582;52.018;6.306;2023-02-13T11:31:20;103593.53;;;10.93;100.00
18900;BME280;9582;52.018;6.306;2023-02-13T11:33:51;103591.78;;;10.98;100.00
18900;BME280;9582;52.018;6.306;2023-02-13T11:36:28;103589.19;;;10.90;100.00
18900;BME280;9582;52.018;6.306;2023-02-13T11:39:01;103581.34;;;10.87;100.00
18900;BME280;9582;52.018;6.306;2023-02-13T11:41:29;103593.56;;;10.88;100.00
18900;BME280;9582;52.018;6.306;2023-02-13T11:44:01;103591.81;;;10.95;100.00
18900;BME280;9582;52.018;6.306;2023-02-13T11:46:41;103584.84;;;10.79;100.00
18900;BME280;9582;52.018;6.306;2023-02-13T11:49:19;103582.19;;;11.00;100.00
18900;BME280;9582;52.018;6.306;2023-02-13T11:51:48;103581.28;;;11.12;100.00
18900;BME280;9582;52.018;6.306;2023-02-13T11:54:28;103583.03;;;11.10;100.00
18900;BME280;9582;52.018;6.306;2023-02-13T11:56:58;103575.16;;;11.17;100.00
18900;BME280;9582;52.018;6.306;2023-02-13T11:59:37;103578.63;;;11.21;100.00
18900;BME280;9582;52.018;6.306;2023-02-13T12:02:13;103573.38;;;11.31;100.00
18900;BME280;9582;52.018;6.306;2023-02-13T12:04:45;103568.13;;;11.28;100.00
18900;BME280;9582;52.018;6.306;2023-02-13T12:07:19;103565.47;;;11.33;100.00
18900;BME280;9582;52.018;6.306;2023-02-13T12:09:52;103559.47;;;11.08;100.00
18900;BME280;9582;52.018;6.306;2023-02-13T12:12:34;103550.78;;;11.00;100.00
18900;BME280;9582;52.018;6.306;2023-02-13T12:15:14;103554.25;;;11.02;100.00
18900;BME280;9582;52.018;6.306;2023-02-13T12:17:42;103549.91;;;10.96;100.00
18900;BME280;9582;52.018;6.306;2023-02-13T12:20:12;103555.13;;;10.96;100.00
18900;BME280;9582;52.018;6.306;2023-02-13T12:22:52;103561.25;;;10.94;100.00
18900;BME280;9582;52.018;6.306;2023-02-13T12:25:34;103567.38;;;10.84;100.00
18900;BME280;9582;52.018;6.306;2023-02-13T12:28:13;103554.31;;;10.78;100.00
18900;BME280;9582;52.018;6.306;2023-02-13T12:30:57;103554.25;;;10.96;100.00
18900;BME280;9582;52.018;6.306;2023-02-13T12:33:43;103555.09;;;11.13;100.00
18900;BME280;9582;52.018;6.306;2023-02-13T12:36:20;103553.31;;;11.20;100.00
18900;BME280;9582;52.018;6.306;2023-02-13T12:39:03;103548.13;;;11.08;100.00
18900;BME280;9582;52.018;6.306;2023-02-13T12:41:44;103547.25;;;11.04;100.00
18900;BME280;9582;52.018;6.306;2023-02-13T12:44:36;103537.66;;;11.01;100.00
18900;BME280;9582;52.018;6.306;2023-02-13T12:47:16;103538.53;;;11.02;100.00
18900;BME280;9582;52.018;6.306;2023-02-13T12:50:00;103533.31;;;10.93;100.00
18900;BME280;9582;52.018;6.306;2023-02-13T12:52:37;103525.50;;;10.85;100.00
18900;BME280;9582;52.018;6.306;2023-02-13T12:55:26;103523.75;;;10.86;100.00
18900;BME280;9582;52.018;6.306;2023-02-13T12:58:14;103523.72;;;10.96;100.00
18900;BME280;9582;52.018;6.306;2023-02-13T13:00:50;103517.63;;;10.93;100.00
18900;BME280;9582;52.018;6.306;2023-02-13T13:03:32;103512.31;;;11.07;100.00
18900;BME280;9582;52.018;6.306;2023-02-13T13:06:15;103501.84;;;11.14;100.00
18900;BME280;9582;52.018;6.306;2023-02-13T13:09:05;103504.44;;;11.20;100.00
18900;BME280;9582;52.018;6.306;2023-02-13T13:12:04;103498.28;;;11.29;100.00
18900;BME280;9582;52.018;6.306;2023-02-13T13:14:43;103500.00;;;11.31;100.00
18900;BME280;9582;52.018;6.306;2023-02-13T13:17:26;103501.72;;;11.32;100.00
18900;BME280;9582;52.018;6.306;2023-02-13T13:20:16;103501.75;;;11.26;100.00
18900;BME280;9582;52.018;6.306;2023-02-13T13:22:54;103501.69;;;11.38;100.00
18900;BME280;9582;52.018;6.306;2023-02-13T13:25:35;103496.47;;;11.35;100.00
18900;BME280;9582;52.018;6.306;2023-02-13T13:28:11;103494.72;;;11.36;100.00
18900;BME280;9582;52.018;6.306;2023-02-13T13:30:45;103490.44;;;11.26;100.00
18900;BME280;9582;52.018;6.306;2023-02-13T13:33:20;103501.69;;;11.41;100.00
18900;BME280;9582;52.018;6.306;2023-02-13T13:36:00;103492.94;;;11.48;100.00
18900;BME280;9582;52.018;6.306;2023-02-13T13:38:38;103494.75;;;11.34;100.00
18900;BME280;9582;52.018;6.306;2023-02-13T13:41:14;103482.38;;;11.54;100.00
18900;BME280;9582;52.018;6.306;2023-02-13T13:44:00;103484.16;;;11.54;100.00
18900;BME280;9582;52.018;6.306;2023-02-13T13:46:51;103478.09;;;11.41;100.00